Lawler, Minnesota
Current Conditions -  °F | °C
As of 4:07 PM on Saturday 20 Dec 2014 (Local Time) from KHZX Reporting Station
Overcast Overcast  
Wind Chill: 23°   Ceiling: 700
Heat Index: 30°   Visibility: 5mi
Dew Point: 28°   Wind: 7mph
Humidity: 93%   Direction: 180°S
Pressure: 30.07"   Gusts: NA
Location:  46.7232°N, 93.3159°W
Report Text: KHZX 202207Z AUTO 18006KT 5SM OVC007 M01/M02 A3007 RMK AO2
Loading
Personal Weather Stations






























Interactive Weather Map New forecast layout! Learn more

10-Day Weather Forecast

Advertisements
Track Severe Weather on mobile